createdAt,value
2022-09-12T00:01:17.034Z,12.96
2022-09-12T00:03:44.228Z,12.94
2022-09-12T00:06:23.639Z,12.93
2022-09-12T00:08:54.589Z,12.87
2022-09-12T00:11:22.386Z,12.83
2022-09-12T00:13:50.445Z,12.77
2022-09-12T00:16:22.885Z,12.75
2022-09-12T00:18:51.358Z,12.71
2022-09-12T00:21:19.412Z,12.68
2022-09-12T00:23:47.472Z,12.65
2022-09-12T00:26:18.548Z,12.64
2022-09-12T00:28:46.913Z,12.60
2022-09-12T00:31:24.001Z,12.56
2022-09-12T00:33:52.608Z,12.49
2022-09-12T00:36:24.334Z,12.42
2022-09-12T00:38:52.337Z,12.39
2022-09-12T00:41:31.488Z,12.38
2022-09-12T00:44:21.207Z,12.36
2022-09-12T00:46:56.815Z,12.32
2022-09-12T00:49:40.574Z,12.30
2022-09-12T00:52:34.751Z,12.30
2022-09-12T00:55:12.971Z,12.29
2022-09-12T00:57:49.781Z,12.29
2022-09-12T01:00:24.417Z,12.25
2022-09-12T01:03:07.836Z,12.25
2022-09-12T01:05:40.640Z,12.24
2022-09-12T01:08:07.958Z,12.21
2022-09-12T01:10:38.413Z,12.21
2022-09-12T01:13:09.567Z,12.17
2022-09-12T01:15:40.883Z,12.16
2022-09-12T01:18:27.512Z,12.16
2022-09-12T01:21:21.500Z,12.09
2022-09-12T01:24:46.961Z,11.99
2022-09-12T01:27:29.254Z,11.90
2022-09-12T01:30:05.272Z,11.86
2022-09-12T01:33:07.660Z,11.86
2022-09-12T01:36:03.435Z,11.91
2022-09-12T01:38:43.378Z,11.96
2022-09-12T01:41:53.926Z,11.98
2022-09-12T01:45:00.188Z,11.96
2022-09-12T01:48:20.413Z,11.96
2022-09-12T01:51:07.554Z,11.93
2022-09-12T01:53:46.731Z,11.90
2022-09-12T01:56:25.920Z,11.89
2022-09-12T01:59:11.968Z,11.86
2022-09-12T02:01:55.474Z,11.88
2022-09-12T02:04:34.240Z,11.90
2022-09-12T02:07:22.240Z,11.93
2022-09-12T02:10:09.515Z,11.95
2022-09-12T02:12:47.380Z,11.96
2022-09-12T02:15:20.711Z,11.96
2022-09-12T02:17:54.267Z,11.96
2022-09-12T02:20:47.000Z,11.97
2022-09-12T02:23:29.091Z,11.97
2022-09-12T02:26:08.580Z,11.93
2022-09-12T02:28:42.007Z,11.92
2022-09-12T02:31:33.463Z,11.90
2022-09-12T02:34:28.020Z,11.90
2022-09-12T02:37:06.028Z,11.96
2022-09-12T02:39:33.785Z,12.00
2022-09-12T02:42:03.161Z,12.02
2022-09-12T02:44:32.749Z,12.04
2022-09-12T02:48:00.185Z,12.06
2022-09-12T02:50:28.099Z,12.11
2022-09-12T02:52:59.695Z,12.16
2022-09-12T02:55:30.456Z,12.20
2022-09-12T02:57:57.436Z,12.19
2022-09-12T03:00:26.842Z,12.20
2022-09-12T03:03:21.962Z,12.20
2022-09-12T03:06:00.233Z,12.21
2022-09-12T03:09:14.047Z,12.21
2022-09-12T03:11:47.980Z,12.20
2022-09-12T03:14:48.652Z,12.20
2022-09-12T03:17:45.725Z,12.20
2022-09-12T03:20:50.929Z,12.19
2022-09-12T03:23:29.919Z,12.17
2022-09-12T03:26:10.383Z,12.17
2022-09-12T03:28:41.407Z,12.15
2022-09-12T03:31:16.869Z,12.15
2022-09-12T03:33:45.783Z,12.11
2022-09-12T03:36:28.386Z,12.12
2022-09-12T03:38:55.644Z,12.09
2022-09-12T03:41:22.791Z,12.10
2022-09-12T03:43:49.751Z,12.09
2022-09-12T03:46:16.752Z,12.09
2022-09-12T03:48:44.745Z,12.09
2022-09-12T03:51:11.733Z,12.12
2022-09-12T03:53:39.733Z,12.14
2022-09-12T03:56:10.025Z,12.15
2022-09-12T03:58:38.622Z,12.15
2022-09-12T04:01:15.951Z,12.16
2022-09-12T04:03:46.778Z,12.19
2022-09-12T04:06:16.676Z,12.21
2022-09-12T04:08:50.474Z,12.23
2022-09-12T04:11:20.301Z,12.24
2022-09-12T04:13:48.545Z,12.25
2022-09-12T04:16:17.540Z,12.28
2022-09-12T04:18:45.971Z,12.30
2022-09-12T04:21:18.502Z,12.30
2022-09-12T04:23:45.949Z,12.27
2022-09-12T04:26:15.359Z,12.27
2022-09-12T04:28:42.476Z,12.31
2022-09-12T04:31:17.582Z,12.30
2022-09-12T04:33:45.675Z,12.32
2022-09-12T04:36:17.689Z,12.31
2022-09-12T04:38:47.045Z,12.32
2022-09-12T04:41:23.833Z,12.32
2022-09-12T04:44:03.124Z,12.32
2022-09-12T04:46:34.210Z,12.34
2022-09-12T04:49:05.969Z,12.36
2022-09-12T04:51:37.013Z,12.36
2022-09-12T04:54:15.526Z,12.40
2022-09-12T04:56:47.189Z,12.42
2022-09-12T04:59:17.632Z,12.45
2022-09-12T05:02:10.561Z,12.48
2022-09-12T05:04:42.462Z,12.49
2022-09-12T05:07:09.526Z,12.56
2022-09-12T05:09:36.541Z,12.58
2022-09-12T05:12:05.702Z,12.60
2022-09-12T05:14:34.271Z,12.62
2022-09-12T05:17:02.797Z,12.66
2022-09-12T05:19:32.034Z,12.69
2022-09-12T05:22:00.231Z,12.72
2022-09-12T05:24:31.142Z,12.77
2022-09-12T05:26:59.491Z,12.81
2022-09-12T05:29:26.739Z,12.85
2022-09-12T05:31:54.807Z,12.89
2022-09-12T05:34:22.626Z,12.96
2022-09-12T05:36:49.657Z,13.03
2022-09-12T05:39:16.802Z,13.07
2022-09-12T05:41:44.832Z,13.11
2022-09-12T05:44:14.134Z,13.14
2022-09-12T05:46:44.234Z,13.19
2022-09-12T05:49:15.108Z,13.22
2022-09-12T05:51:45.787Z,13.25
2022-09-12T05:54:19.398Z,13.29
2022-09-12T05:56:47.421Z,13.30
2022-09-12T05:59:21.276Z,13.32
2022-09-12T06:01:49.129Z,13.34
2022-09-12T06:04:17.591Z,13.39
2022-09-12T06:06:46.143Z,13.42
2022-09-12T06:09:16.666Z,13.44
2022-09-12T06:11:45.814Z,13.50
2022-09-12T06:14:16.717Z,13.53
2022-09-12T06:16:44.027Z,13.57
2022-09-12T06:19:20.552Z,13.63
2022-09-12T06:21:49.863Z,13.68
2022-09-12T06:24:18.793Z,13.73
2022-09-12T06:26:47.684Z,13.76
2022-09-12T06:29:15.396Z,13.79
2022-09-12T06:31:43.663Z,13.80
2022-09-12T06:34:14.146Z,13.86
2022-09-12T06:36:46.078Z,13.90
2022-09-12T06:39:19.540Z,13.96
2022-09-12T06:41:48.339Z,13.96
2022-09-12T06:44:19.859Z,14.01
2022-09-12T06:46:47.532Z,14.01
2022-09-12T06:49:14.971Z,14.04
2022-09-12T06:51:43.240Z,14.05
2022-09-12T06:54:15.560Z,14.06
2022-09-12T06:56:42.689Z,14.09
2022-09-12T06:59:10.891Z,14.10
2022-09-12T07:01:38.486Z,14.07
2022-09-12T07:04:05.756Z,14.04
2022-09-12T07:06:42.313Z,14.02
2022-09-12T07:09:16.498Z,13.97
2022-09-12T07:11:45.712Z,13.93
2022-09-12T07:14:15.342Z,13.90
2022-09-12T07:16:43.131Z,13.89
2022-09-12T07:19:12.072Z,13.90
2022-09-12T07:21:40.487Z,13.99
2022-09-12T07:24:10.255Z,14.16
2022-09-12T07:26:40.338Z,14.36
2022-09-12T07:32:01.779Z,14.83
2022-09-12T07:34:28.991Z,15.03
2022-09-12T07:36:56.157Z,15.21
2022-09-12T07:39:23.215Z,15.40
2022-09-12T07:41:51.365Z,15.51
2022-09-12T07:44:18.355Z,15.61
2022-09-12T07:46:45.312Z,15.78
2022-09-12T07:49:12.410Z,15.94
2022-09-12T07:51:41.167Z,16.08
2022-09-12T07:54:09.444Z,16.29
2022-09-12T07:56:39.145Z,16.46
2022-09-12T07:59:08.401Z,16.62
2022-09-12T08:01:35.485Z,16.74
2022-09-12T08:04:04.915Z,16.83
2022-09-12T08:06:35.770Z,16.98
2022-09-12T08:09:05.544Z,17.12
2022-09-12T08:11:32.585Z,17.28
2022-09-12T08:14:01.720Z,17.41
2022-09-12T08:16:31.685Z,17.53
2022-09-12T08:19:01.846Z,17.65
2022-09-12T08:21:32.781Z,17.74
2022-09-12T08:24:06.207Z,17.88
2022-09-12T08:26:34.993Z,18.03
2022-09-12T08:29:02.432Z,18.18
2022-09-12T08:31:36.315Z,18.32
2022-09-12T08:34:07.060Z,18.50
2022-09-12T08:36:35.730Z,18.63
2022-09-12T08:39:07.008Z,18.73
2022-09-12T08:42:02.881Z,18.80
2022-09-12T08:45:15.127Z,18.90
2022-09-12T08:47:46.887Z,18.98
2022-09-12T08:50:22.249Z,19.02
2022-09-12T08:53:16.475Z,19.08
2022-09-12T08:55:53.522Z,19.11
2022-09-12T08:58:27.175Z,19.14
2022-09-12T09:01:09.254Z,19.25
2022-09-12T09:04:09.703Z,19.41
2022-09-12T09:07:06.610Z,19.51
2022-09-12T09:10:00.987Z,19.57
2022-09-12T09:12:51.982Z,19.66
2022-09-12T09:15:34.174Z,19.77
2022-09-12T09:18:28.754Z,19.96
2022-09-12T09:21:30.187Z,20.11
2022-09-12T09:24:10.309Z,20.23
2022-09-12T09:26:58.452Z,20.34
2022-09-12T09:29:44.247Z,20.46
2022-09-12T09:32:38.559Z,20.60
2022-09-12T09:35:36.691Z,20.68
2022-09-12T09:38:44.952Z,20.85
2022-09-12T09:41:39.987Z,20.99
2022-09-12T09:46:36.450Z,21.28
2022-09-12T09:49:07.087Z,21.40
2022-09-12T09:51:38.702Z,21.54
2022-09-12T09:54:21.207Z,21.66
2022-09-12T09:56:48.675Z,21.75
2022-09-12T09:59:15.962Z,21.82
2022-09-12T10:01:55.212Z,21.89
2022-09-12T10:04:26.008Z,21.95
2022-09-12T10:07:02.659Z,21.98
2022-09-12T10:09:34.599Z,22.06
2022-09-12T10:12:29.078Z,22.13
2022-09-12T10:15:00.731Z,22.23
2022-09-12T10:17:34.327Z,22.33
2022-09-12T10:20:21.439Z,22.48
2022-09-12T10:22:50.608Z,22.59
2022-09-12T10:25:24.684Z,22.68
2022-09-12T10:28:00.161Z,22.74
2022-09-12T10:30:28.668Z,22.83
2022-09-12T10:33:15.163Z,22.93
2022-09-12T10:35:49.924Z,22.98
2022-09-12T10:38:30.356Z,23.02
2022-09-12T10:41:03.752Z,23.08
2022-09-12T10:43:33.862Z,23.20
2022-09-12T10:46:28.378Z,23.35
2022-09-12T10:49:38.127Z,23.42
2022-09-12T10:52:37.519Z,23.51
2022-09-12T10:55:14.636Z,23.58
2022-09-12T10:58:21.636Z,23.66
2022-09-12T11:01:03.250Z,23.83
2022-09-12T11:04:12.325Z,23.91
2022-09-12T11:07:41.992Z,24.08
2022-09-12T11:10:27.778Z,24.24
2022-09-12T11:13:20.488Z,24.29
2022-09-12T11:16:30.635Z,24.36
2022-09-12T11:19:09.743Z,24.42
2022-09-12T11:22:02.651Z,24.54
2022-09-12T11:24:43.242Z,24.57
2022-09-12T11:28:02.848Z,24.66
2022-09-12T11:30:51.843Z,24.78
2022-09-12T11:33:30.163Z,24.88
2022-09-12T11:35:57.850Z,24.90
2022-09-12T11:39:16.296Z,24.90
2022-09-12T11:42:00.401Z,24.96
2022-09-12T11:44:41.660Z,25.06
2022-09-12T11:47:13.548Z,25.20
2022-09-12T11:49:50.543Z,25.31
2022-09-12T11:52:24.459Z,25.37
2022-09-12T11:55:08.356Z,25.41
2022-09-12T11:57:54.214Z,25.39
2022-09-12T12:00:42.716Z,25.37
2022-09-12T12:03:32.878Z,25.47
2022-09-12T12:06:10.996Z,25.56
2022-09-12T12:08:43.021Z,25.63
2022-09-12T12:11:39.802Z,25.70
2022-09-12T12:14:19.454Z,25.75
2022-09-12T12:16:47.818Z,25.84
2022-09-12T12:19:14.694Z,25.91
2022-09-12T12:21:47.499Z,25.97
2022-09-12T12:24:21.573Z,26.07
2022-09-12T12:27:22.495Z,26.18
2022-09-12T12:29:49.485Z,26.16
2022-09-12T12:32:16.503Z,26.17
2022-09-12T12:34:46.501Z,26.21
2022-09-12T12:37:22.499Z,26.23
2022-09-12T12:39:50.797Z,26.22
2022-09-12T12:42:35.848Z,26.24
2022-09-12T12:45:08.716Z,26.20
2022-09-12T12:47:38.656Z,26.16
2022-09-12T12:50:19.501Z,26.17
2022-09-12T12:52:50.942Z,26.28
2022-09-12T12:55:26.962Z,26.35
2022-09-12T12:58:04.079Z,26.38
2022-09-12T13:00:40.369Z,26.41
2022-09-12T13:03:07.337Z,26.44
2022-09-12T13:05:58.210Z,26.48
2022-09-12T13:08:59.825Z,26.55
2022-09-12T13:11:45.521Z,26.66
2022-09-12T13:14:42.923Z,26.72
2022-09-12T13:17:34.766Z,26.73
2022-09-12T13:20:53.551Z,26.65
2022-09-12T13:23:39.823Z,26.66
2022-09-12T13:26:25.792Z,26.66
2022-09-12T13:29:24.930Z,26.67
2022-09-12T13:32:01.918Z,26.74
2022-09-12T13:35:04.090Z,26.86
2022-09-12T13:37:51.330Z,26.92
2022-09-12T13:41:07.794Z,26.94
2022-09-12T13:43:53.197Z,26.92
2022-09-12T13:46:40.033Z,26.89
2022-09-12T13:49:33.013Z,26.81
2022-09-12T13:52:05.696Z,26.80
2022-09-12T13:54:38.890Z,26.75
2022-09-12T13:57:41.178Z,26.76
2022-09-12T14:00:28.231Z,26.84
2022-09-12T14:03:30.413Z,26.92
2022-09-12T14:05:57.836Z,26.90
2022-09-12T14:08:25.295Z,26.93
2022-09-12T14:10:52.459Z,26.89
2022-09-12T14:13:39.364Z,26.90
2022-09-12T14:16:09.888Z,26.89
2022-09-12T14:18:39.024Z,26.77
2022-09-12T14:21:35.879Z,26.71
2022-09-12T14:24:08.504Z,26.77
2022-09-12T14:26:40.607Z,26.86
2022-09-12T14:29:08.916Z,26.94
2022-09-12T14:31:39.467Z,26.93
2022-09-12T14:34:18.954Z,26.87
2022-09-12T14:36:55.157Z,26.85
2022-09-12T14:39:39.816Z,26.80
2022-09-12T14:42:34.307Z,26.80
2022-09-12T14:45:13.926Z,26.86
2022-09-12T14:47:50.647Z,26.97
2022-09-12T14:50:24.172Z,27.04
2022-09-12T14:53:06.202Z,27.08
2022-09-12T14:55:42.283Z,27.09
2022-09-12T14:58:29.783Z,27.10
2022-09-12T15:01:15.035Z,27.02
2022-09-12T15:03:46.014Z,26.91
2022-09-12T15:06:31.803Z,26.88
2022-09-12T15:09:05.955Z,26.86
2022-09-12T15:11:33.839Z,26.85
2022-09-12T15:14:15.749Z,26.78
2022-09-12T15:16:42.939Z,26.68
2022-09-12T15:19:10.463Z,26.57
2022-09-12T15:21:37.858Z,26.44
2022-09-12T15:24:05.012Z,26.37
2022-09-12T15:26:32.200Z,26.30
2022-09-12T15:28:59.358Z,26.20
2022-09-12T15:31:30.694Z,26.25
2022-09-12T15:34:01.712Z,26.32
2022-09-12T15:36:29.518Z,26.45
2022-09-12T15:38:57.668Z,26.55
2022-09-12T15:41:36.986Z,26.63
2022-09-12T15:44:07.856Z,26.70
2022-09-12T15:46:36.047Z,26.74
2022-09-12T15:49:03.375Z,26.71
2022-09-12T15:51:30.379Z,26.59
2022-09-12T15:53:57.478Z,26.53
2022-09-12T15:56:24.511Z,26.50
2022-09-12T15:59:00.024Z,26.48
2022-09-12T16:01:29.399Z,26.42
2022-09-12T16:03:56.896Z,26.40
2022-09-12T16:06:33.546Z,26.35
2022-09-12T16:09:03.655Z,26.35
2022-09-12T16:11:31.020Z,26.28
2022-09-12T16:13:58.288Z,26.17
2022-09-12T16:16:25.475Z,26.05
2022-09-12T16:18:52.579Z,26.00
2022-09-12T16:21:19.759Z,25.95
2022-09-12T16:23:47.918Z,25.92
2022-09-12T16:26:21.217Z,25.88
2022-09-12T16:28:56.189Z,25.84
2022-09-12T16:31:23.468Z,25.78
2022-09-12T16:33:51.003Z,25.69
2022-09-12T16:36:21.508Z,25.61
2022-09-12T16:38:53.059Z,25.56
2022-09-12T16:41:26.904Z,25.49
2022-09-12T16:43:55.553Z,25.45
2022-09-12T16:46:28.684Z,25.39
2022-09-12T16:48:58.685Z,25.32
2022-09-12T16:51:31.169Z,25.24
2022-09-12T16:53:58.453Z,25.14
2022-09-12T16:56:26.477Z,24.99
2022-09-12T16:58:54.517Z,24.82
2022-09-12T17:01:25.448Z,24.67
2022-09-12T17:03:55.245Z,24.53
2022-09-12T17:06:25.126Z,24.39
2022-09-12T17:08:55.985Z,24.26
2022-09-12T17:11:33.263Z,24.11
2022-09-12T17:14:06.402Z,23.96
2022-09-12T17:16:48.015Z,23.83
2022-09-12T17:19:22.121Z,23.68
2022-09-12T17:21:50.343Z,23.58
2022-09-12T17:24:18.353Z,23.51
2022-09-12T17:26:46.889Z,23.45
2022-09-12T17:29:17.634Z,23.37
2022-09-12T17:31:45.603Z,23.29
2022-09-12T17:34:14.642Z,23.21
2022-09-12T17:36:44.573Z,23.07
2022-09-12T17:39:13.900Z,22.92
2022-09-12T17:41:46.184Z,22.77
2022-09-12T17:44:15.570Z,22.62
2022-09-12T17:46:43.569Z,22.47
2022-09-12T17:49:17.301Z,22.34
2022-09-12T17:51:44.790Z,22.24
2022-09-12T17:54:16.498Z,22.14
2022-09-12T17:56:49.699Z,22.06
2022-09-12T17:59:21.423Z,21.96
2022-09-12T18:02:07.780Z,21.86
2022-09-12T18:04:35.494Z,21.78
2022-09-12T18:07:02.500Z,21.74
2022-09-12T18:09:30.599Z,21.71
2022-09-12T18:11:58.313Z,21.66
2022-09-12T18:14:28.525Z,21.60
2022-09-12T18:16:57.371Z,21.54
2022-09-12T18:19:24.905Z,21.48
2022-09-12T18:21:55.947Z,21.40
2022-09-12T18:24:23.067Z,21.30
2022-09-12T18:26:50.496Z,21.20
2022-09-12T18:29:19.554Z,21.12
2022-09-12T18:31:46.789Z,21.07
2022-09-12T18:34:15.845Z,21.02
2022-09-12T18:36:47.639Z,20.95
2022-09-12T18:39:16.110Z,20.88
2022-09-12T18:41:44.584Z,20.82
2022-09-12T18:44:14.370Z,20.74
2022-09-12T18:46:42.731Z,20.70
2022-09-12T18:49:35.025Z,20.66
2022-09-12T18:52:26.694Z,20.56
2022-09-12T18:54:53.804Z,20.47
2022-09-12T18:57:20.717Z,20.39
2022-09-12T18:59:47.795Z,20.32
2022-09-12T19:02:18.831Z,20.27
2022-09-12T19:04:45.755Z,20.21
2022-09-12T19:07:12.758Z,20.14
2022-09-12T19:09:39.786Z,20.09
2022-09-12T19:12:10.290Z,20.04
2022-09-12T19:14:37.322Z,19.98
2022-09-12T19:17:07.077Z,19.93
2022-09-12T19:19:36.639Z,19.85
2022-09-12T19:22:12.978Z,19.79
2022-09-12T19:24:40.275Z,19.73
2022-09-12T19:27:07.708Z,19.65
2022-09-12T19:29:34.711Z,19.58
2022-09-12T19:32:01.971Z,19.50
2022-09-12T19:34:29.006Z,19.42
2022-09-12T19:36:59.290Z,19.34
2022-09-12T19:39:26.343Z,19.27
2022-09-12T19:41:53.393Z,19.21
2022-09-12T19:44:20.538Z,19.12
2022-09-12T19:46:47.737Z,19.03
2022-09-12T19:49:14.992Z,18.97
2022-09-12T19:51:42.083Z,18.87
2022-09-12T19:54:09.581Z,18.79
2022-09-12T19:56:36.723Z,18.73
2022-09-12T19:59:04.820Z,18.67
2022-09-12T20:01:36.784Z,18.62
2022-09-12T20:04:05.147Z,18.59
2022-09-12T20:06:32.395Z,18.55
2022-09-12T20:08:59.909Z,18.53
2022-09-12T20:11:26.914Z,18.52
2022-09-12T20:13:54.212Z,18.47
2022-09-12T20:16:29.326Z,18.41
2022-09-12T20:19:07.144Z,18.39
2022-09-12T20:21:36.206Z,18.37
2022-09-12T20:24:11.283Z,18.34
2022-09-12T20:26:41.193Z,18.30
2022-09-12T20:29:10.075Z,18.27
2022-09-12T20:31:40.413Z,18.22
2022-09-12T20:34:14.698Z,18.18
2022-09-12T20:36:42.209Z,18.13
2022-09-12T20:39:16.406Z,18.07
2022-09-12T20:41:43.674Z,18.02
2022-09-12T20:44:10.981Z,17.97
2022-09-12T20:46:38.429Z,17.93
2022-09-12T20:49:06.563Z,17.88
2022-09-12T20:51:36.438Z,17.85
2022-09-12T20:54:06.431Z,17.81
2022-09-12T20:56:36.299Z,17.78
2022-09-12T20:59:04.954Z,17.74
2022-09-12T21:01:32.596Z,17.73
2022-09-12T21:04:01.168Z,17.68
2022-09-12T21:06:28.754Z,17.63
2022-09-12T21:09:00.346Z,17.58
2022-09-12T21:11:28.558Z,17.52
2022-09-12T21:13:55.896Z,17.48
2022-09-12T21:16:23.796Z,17.43
2022-09-12T21:18:57.849Z,17.38
2022-09-12T21:21:26.350Z,17.38
2022-09-12T21:23:56.977Z,17.36
2022-09-12T21:26:24.428Z,17.35
2022-09-12T21:28:51.402Z,17.33
2022-09-12T21:31:18.569Z,17.30
2022-09-12T21:33:45.827Z,17.32
2022-09-12T21:36:12.926Z,17.30
2022-09-12T21:38:39.880Z,17.27
2022-09-12T21:41:13.935Z,17.23
2022-09-12T21:43:43.087Z,17.21
2022-09-12T21:46:11.197Z,17.16
2022-09-12T21:48:39.295Z,17.13
2022-09-12T21:51:06.955Z,17.12
2022-09-12T21:53:34.529Z,17.09
2022-09-12T21:56:07.448Z,17.08
2022-09-12T21:58:35.441Z,17.08
2022-09-12T22:01:03.387Z,17.11
2022-09-12T22:03:30.599Z,17.13
2022-09-12T22:06:04.001Z,17.14
2022-09-12T22:08:33.701Z,17.17
2022-09-12T22:11:05.095Z,17.19
2022-09-12T22:13:32.370Z,17.23
2022-09-12T22:16:02.829Z,17.28
2022-09-12T22:18:33.857Z,17.34
2022-09-12T22:21:06.437Z,17.35
2022-09-12T22:23:52.315Z,17.37
2022-09-12T22:26:20.478Z,17.39
2022-09-12T22:28:47.713Z,17.43
2022-09-12T22:31:16.030Z,17.46
2022-09-12T22:33:43.654Z,17.48
2022-09-12T22:36:12.005Z,17.52
2022-09-12T22:38:39.806Z,17.56
2022-09-12T22:41:11.257Z,17.60
2022-09-12T22:43:39.155Z,17.65
2022-09-12T22:46:09.447Z,17.65
2022-09-12T22:48:37.737Z,17.70
2022-09-12T22:51:05.579Z,17.73
2022-09-12T22:53:32.898Z,17.72
2022-09-12T22:55:59.854Z,17.72
2022-09-12T22:58:27.010Z,17.70
2022-09-12T23:00:54.273Z,17.69
2022-09-12T23:03:22.521Z,17.69
2022-09-12T23:05:49.859Z,17.69
2022-09-12T23:08:19.307Z,17.68
2022-09-12T23:10:46.765Z,17.67
2022-09-12T23:13:13.995Z,17.67
2022-09-12T23:15:41.069Z,17.68
2022-09-12T23:18:08.470Z,17.68
2022-09-12T23:20:35.512Z,17.68
2022-09-12T23:23:02.839Z,17.68
2022-09-12T23:25:32.186Z,17.69
2022-09-12T23:27:59.211Z,17.68
2022-09-12T23:30:26.250Z,17.67
2022-09-12T23:32:53.210Z,17.65
2022-09-12T23:35:20.221Z,17.64
2022-09-12T23:37:47.650Z,17.63
2022-09-12T23:40:14.875Z,17.62
2022-09-12T23:42:41.930Z,17.58
2022-09-12T23:45:10.279Z,17.53
2022-09-12T23:47:37.383Z,17.51
2022-09-12T23:50:06.047Z,17.47
2022-09-12T23:52:32.962Z,17.43
2022-09-12T23:55:00.000Z,17.40
2022-09-12T23:57:27.021Z,17.37
2022-09-12T23:59:54.056Z,17.33
